sensor_id;sensor_type;location;lat;lon;timestamp;temperature;humidity
16521;DHT22;8373;48.110;11.522;2023-03-23T00:01:20;14.00;49.70
16521;DHT22;8373;48.110;11.522;2023-03-23T00:03:49;14.10;49.80
16521;DHT22;8373;48.110;11.522;2023-03-23T00:06:18;14.10;49.70
16521;DHT22;8373;48.110;11.522;2023-03-23T00:08:47;14.00;49.70
16521;DHT22;8373;48.110;11.522;2023-03-23T00:11:18;14.00;49.90
16521;DHT22;8373;48.110;11.522;2023-03-23T00:13:47;14.10;50.10
16521;DHT22;8373;48.110;11.522;2023-03-23T00:16:18;14.00;50.00
16521;DHT22;8373;48.110;11.522;2023-03-23T00:18:45;14.00;50.10
16521;DHT22;8373;48.110;11.522;2023-03-23T00:21:12;14.00;50.20
16521;DHT22;8373;48.110;11.522;2023-03-23T00:23:41;14.10;50.40
16521;DHT22;8373;48.110;11.522;2023-03-23T00:26:10;14.10;50.40
16521;DHT22;8373;48.110;11.522;2023-03-23T00:28:38;13.90;50.40
16521;DHT22;8373;48.110;11.522;2023-03-23T00:31:07;13.90;50.70
16521;DHT22;8373;48.110;11.522;2023-03-23T00:33:36;13.90;50.80
16521;DHT22;8373;48.110;11.522;2023-03-23T00:36:07;13.80;50.90
16521;DHT22;8373;48.110;11.522;2023-03-23T00:38:35;13.70;51.10
16521;DHT22;8373;48.110;11.522;2023-03-23T00:41:04;13.80;51.40
16521;DHT22;8373;48.110;11.522;2023-03-23T00:43:32;13.90;51.30
16521;DHT22;8373;48.110;11.522;2023-03-23T00:46:02;13.90;51.30
16521;DHT22;8373;48.110;11.522;2023-03-23T00:48:34;13.80;51.20
16521;DHT22;8373;48.110;11.522;2023-03-23T00:51:02;13.80;51.30
16521;DHT22;8373;48.110;11.522;2023-03-23T00:53:37;13.90;51.40
16521;DHT22;8373;48.110;11.522;2023-03-23T00:56:07;13.90;51.40
16521;DHT22;8373;48.110;11.522;2023-03-23T00:58:34;14.00;51.40
16521;DHT22;8373;48.110;11.522;2023-03-23T01:01:02;14.00;51.20
16521;DHT22;8373;48.110;11.522;2023-03-23T01:03:29;14.00;51.10
16521;DHT22;8373;48.110;11.522;2023-03-23T01:05:57;14.00;51.10
16521;DHT22;8373;48.110;11.522;2023-03-23T01:08:25;14.10;51.30
16521;DHT22;8373;48.110;11.522;2023-03-23T01:11:01;14.20;51.20
16521;DHT22;8373;48.110;11.522;2023-03-23T01:13:30;14.20;51.10
16521;DHT22;8373;48.110;11.522;2023-03-23T01:15:57;14.20;51.00
16521;DHT22;8373;48.110;11.522;2023-03-23T01:18:25;14.30;51.00
16521;DHT22;8373;48.110;11.522;2023-03-23T01:20:52;14.30;50.70
16521;DHT22;8373;48.110;11.522;2023-03-23T01:23:19;14.30;50.70
16521;DHT22;8373;48.110;11.522;2023-03-23T01:25:46;14.40;50.70
16521;DHT22;8373;48.110;11.522;2023-03-23T01:28:14;14.30;50.80
16521;DHT22;8373;48.110;11.522;2023-03-23T01:30:42;14.30;51.00
16521;DHT22;8373;48.110;11.522;2023-03-23T01:33:09;14.30;50.80
16521;DHT22;8373;48.110;11.522;2023-03-23T01:35:37;14.30;50.90
16521;DHT22;8373;48.110;11.522;2023-03-23T01:38:04;14.30;50.80
16521;DHT22;8373;48.110;11.522;2023-03-23T01:40:31;14.30;50.90
16521;DHT22;8373;48.110;11.522;2023-03-23T01:42:58;14.20;50.80
16521;DHT22;8373;48.110;11.522;2023-03-23T01:45:28;14.20;51.00
16521;DHT22;8373;48.110;11.522;2023-03-23T01:48:01;14.30;51.20
16521;DHT22;8373;48.110;11.522;2023-03-23T01:50:31;14.30;51.10
16521;DHT22;8373;48.110;11.522;2023-03-23T01:53:02;14.30;51.20
16521;DHT22;8373;48.110;11.522;2023-03-23T01:55:32;14.40;51.30
16521;DHT22;8373;48.110;11.522;2023-03-23T01:57:59;14.50;51.80
16521;DHT22;8373;48.110;11.522;2023-03-23T02:00:26;14.50;50.90
16521;DHT22;8373;48.110;11.522;2023-03-23T02:02:54;14.60;50.80
16521;DHT22;8373;48.110;11.522;2023-03-23T02:05:27;14.60;50.60
16521;DHT22;8373;48.110;11.522;2023-03-23T02:07:58;14.60;50.30
16521;DHT22;8373;48.110;11.522;2023-03-23T02:10:29;14.50;50.10
16521;DHT22;8373;48.110;11.522;2023-03-23T02:12:56;14.50;50.20
16521;DHT22;8373;48.110;11.522;2023-03-23T02:15:25;14.50;50.30
16521;DHT22;8373;48.110;11.522;2023-03-23T02:18:01;14.40;50.30
16521;DHT22;8373;48.110;11.522;2023-03-23T02:20:45;14.30;50.50
16521;DHT22;8373;48.110;11.522;2023-03-23T02:23:28;14.30;50.70
16521;DHT22;8373;48.110;11.522;2023-03-23T02:26:03;14.20;51.00
16521;DHT22;8373;48.110;11.522;2023-03-23T02:28:52;14.20;51.10
16521;DHT22;8373;48.110;11.522;2023-03-23T02:31:45;14.20;51.10
16521;DHT22;8373;48.110;11.522;2023-03-23T02:34:17;14.30;51.40
16521;DHT22;8373;48.110;11.522;2023-03-23T02:36:47;14.30;51.20
16521;DHT22;8373;48.110;11.522;2023-03-23T02:39:21;14.30;51.20
16521;DHT22;8373;48.110;11.522;2023-03-23T02:41:52;14.30;51.10
16521;DHT22;8373;48.110;11.522;2023-03-23T02:44:22;14.30;50.90
16521;DHT22;8373;48.110;11.522;2023-03-23T02:46:50;14.30;51.00
16521;DHT22;8373;48.110;11.522;2023-03-23T02:49:21;14.30;51.10
16521;DHT22;8373;48.110;11.522;2023-03-23T02:51:49;14.20;51.00
16521;DHT22;8373;48.110;11.522;2023-03-23T02:54:18;14.10;51.20
16521;DHT22;8373;48.110;11.522;2023-03-23T02:56:48;14.20;51.40
16521;DHT22;8373;48.110;11.522;2023-03-23T02:59:17;14.30;51.30
16521;DHT22;8373;48.110;11.522;2023-03-23T03:02:05;14.40;51.20
16521;DHT22;8373;48.110;11.522;2023-03-23T03:04:36;14.40;51.00
16521;DHT22;8373;48.110;11.522;2023-03-23T03:07:33;14.30;51.00
16521;DHT22;8373;48.110;11.522;2023-03-23T03:10:08;14.30;51.40
16521;DHT22;8373;48.110;11.522;2023-03-23T03:12:46;14.20;51.20
16521;DHT22;8373;48.110;11.522;2023-03-23T03:15:23;14.10;51.30
16521;DHT22;8373;48.110;11.522;2023-03-23T03:17:58;14.00;51.70
16521;DHT22;8373;48.110;11.522;2023-03-23T03:20:30;13.90;51.80
16521;DHT22;8373;48.110;11.522;2023-03-23T03:22:58;14.00;51.90
16521;DHT22;8373;48.110;11.522;2023-03-23T03:25:26;14.00;51.90
16521;DHT22;8373;48.110;11.522;2023-03-23T03:27:54;14.00;52.00
16521;DHT22;8373;48.110;11.522;2023-03-23T03:30:26;14.00;51.80
16521;DHT22;8373;48.110;11.522;2023-03-23T03:32:56;13.90;52.00
16521;DHT22;8373;48.110;11.522;2023-03-23T03:35:27;13.90;52.00
16521;DHT22;8373;48.110;11.522;2023-03-23T03:37:55;13.80;52.20
16521;DHT22;8373;48.110;11.522;2023-03-23T03:40:23;13.70;52.30
16521;DHT22;8373;48.110;11.522;2023-03-23T03:42:50;13.80;52.60
16521;DHT22;8373;48.110;11.522;2023-03-23T03:45:19;13.80;52.40
16521;DHT22;8373;48.110;11.522;2023-03-23T03:47:46;13.90;52.40
16521;DHT22;8373;48.110;11.522;2023-03-23T03:50:14;13.80;52.20
16521;DHT22;8373;48.110;11.522;2023-03-23T03:52:43;13.90;52.50
16521;DHT22;8373;48.110;11.522;2023-03-23T03:55:10;13.80;52.20
16521;DHT22;8373;48.110;11.522;2023-03-23T03:57:38;13.70;52.40
16521;DHT22;8373;48.110;11.522;2023-03-23T04:00:06;13.70;52.60
16521;DHT22;8373;48.110;11.522;2023-03-23T04:02:41;13.60;52.60
16521;DHT22;8373;48.110;11.522;2023-03-23T04:05:09;13.60;53.00
16521;DHT22;8373;48.110;11.522;2023-03-23T04:07:37;13.60;53.10
16521;DHT22;8373;48.110;11.522;2023-03-23T04:10:07;13.70;53.20
16521;DHT22;8373;48.110;11.522;2023-03-23T04:12:35;13.70;52.90
16521;DHT22;8373;48.110;11.522;2023-03-23T04:15:02;13.70;53.00
16521;DHT22;8373;48.110;11.522;2023-03-23T04:17:30;13.70;53.00
16521;DHT22;8373;48.110;11.522;2023-03-23T04:19:57;13.80;52.90
16521;DHT22;8373;48.110;11.522;2023-03-23T04:22:25;13.80;52.90
16521;DHT22;8373;48.110;11.522;2023-03-23T04:24:56;13.90;52.80
16521;DHT22;8373;48.110;11.522;2023-03-23T04:27:26;13.80;52.70
16521;DHT22;8373;48.110;11.522;2023-03-23T04:29:54;13.70;52.80
16521;DHT22;8373;48.110;11.522;2023-03-23T04:32:21;13.70;53.10
16521;DHT22;8373;48.110;11.522;2023-03-23T04:34:50;13.70;53.00
16521;DHT22;8373;48.110;11.522;2023-03-23T04:37:17;13.60;53.20
16521;DHT22;8373;48.110;11.522;2023-03-23T04:39:44;13.60;53.40
16521;DHT22;8373;48.110;11.522;2023-03-23T04:42:11;13.60;53.50
16521;DHT22;8373;48.110;11.522;2023-03-23T04:44:41;13.50;53.60
16521;DHT22;8373;48.110;11.522;2023-03-23T04:47:09;13.40;53.70
16521;DHT22;8373;48.110;11.522;2023-03-23T04:49:36;13.50;53.90
16521;DHT22;8373;48.110;11.522;2023-03-23T04:52:03;13.50;53.90
16521;DHT22;8373;48.110;11.522;2023-03-23T04:54:31;13.30;53.80
16521;DHT22;8373;48.110;11.522;2023-03-23T04:56:58;13.40;54.20
16521;DHT22;8373;48.110;11.522;2023-03-23T04:59:25;13.30;54.40
16521;DHT22;8373;48.110;11.522;2023-03-23T05:01:55;13.30;54.40
16521;DHT22;8373;48.110;11.522;2023-03-23T05:04:22;13.30;54.40
16521;DHT22;8373;48.110;11.522;2023-03-23T05:06:50;13.30;54.40
16521;DHT22;8373;48.110;11.522;2023-03-23T05:09:18;13.50;54.70
16521;DHT22;8373;48.110;11.522;2023-03-23T05:11:46;13.50;54.40
16521;DHT22;8373;48.110;11.522;2023-03-23T05:14:13;13.30;54.30
16521;DHT22;8373;48.110;11.522;2023-03-23T05:16:40;13.30;54.40
16521;DHT22;8373;48.110;11.522;2023-03-23T05:19:08;13.30;54.40
16521;DHT22;8373;48.110;11.522;2023-03-23T05:21:35;13.20;54.80
16521;DHT22;8373;48.110;11.522;2023-03-23T05:24:02;13.20;55.00
16521;DHT22;8373;48.110;11.522;2023-03-23T05:26:29;13.30;55.00
16521;DHT22;8373;48.110;11.522;2023-03-23T05:28:58;13.30;54.80
16521;DHT22;8373;48.110;11.522;2023-03-23T05:31:25;13.30;54.80
16521;DHT22;8373;48.110;11.522;2023-03-23T05:33:52;13.40;54.90
16521;DHT22;8373;48.110;11.522;2023-03-23T05:36:20;13.40;55.00
16521;DHT22;8373;48.110;11.522;2023-03-23T05:38:48;13.60;54.80
16521;DHT22;8373;48.110;11.522;2023-03-23T05:41:17;13.60;54.70
16521;DHT22;8373;48.110;11.522;2023-03-23T05:43:44;13.70;54.40
16521;DHT22;8373;48.110;11.522;2023-03-23T05:46:11;13.70;54.20
16521;DHT22;8373;48.110;11.522;2023-03-23T05:48:38;13.70;54.30
16521;DHT22;8373;48.110;11.522;2023-03-23T05:51:05;13.70;54.20
16521;DHT22;8373;48.110;11.522;2023-03-23T05:53:33;13.70;54.00
16521;DHT22;8373;48.110;11.522;2023-03-23T05:56:01;13.60;54.10
16521;DHT22;8373;48.110;11.522;2023-03-23T05:58:29;13.50;54.60
16521;DHT22;8373;48.110;11.522;2023-03-23T06:00:55;13.30;54.60
16521;DHT22;8373;48.110;11.522;2023-03-23T06:03:22;13.20;55.20
16521;DHT22;8373;48.110;11.522;2023-03-23T06:05:49;13.00;55.60
16521;DHT22;8373;48.110;11.522;2023-03-23T06:08:17;12.90;56.00
16521;DHT22;8373;48.110;11.522;2023-03-23T06:10:46;12.80;56.20
16521;DHT22;8373;48.110;11.522;2023-03-23T06:13:13;12.80;56.50
16521;DHT22;8373;48.110;11.522;2023-03-23T06:15:40;12.80;56.30
16521;DHT22;8373;48.110;11.522;2023-03-23T06:18:08;12.90;56.50
16521;DHT22;8373;48.110;11.522;2023-03-23T06:20:36;13.00;56.40
16521;DHT22;8373;48.110;11.522;2023-03-23T06:23:03;13.10;56.20
16521;DHT22;8373;48.110;11.522;2023-03-23T06:25:30;13.10;55.90
16521;DHT22;8373;48.110;11.522;2023-03-23T06:27:58;13.20;55.90
16521;DHT22;8373;48.110;11.522;2023-03-23T06:30:25;13.30;55.80
16521;DHT22;8373;48.110;11.522;2023-03-23T06:32:54;13.40;55.60
16521;DHT22;8373;48.110;11.522;2023-03-23T06:35:21;13.30;55.40
16521;DHT22;8373;48.110;11.522;2023-03-23T06:37:48;13.30;55.50
16521;DHT22;8373;48.110;11.522;2023-03-23T06:40:16;13.30;55.60
16521;DHT22;8373;48.110;11.522;2023-03-23T06:42:45;13.40;55.60
16521;DHT22;8373;48.110;11.522;2023-03-23T06:45:13;13.50;55.60
16521;DHT22;8373;48.110;11.522;2023-03-23T06:47:40;13.60;55.40
16521;DHT22;8373;48.110;11.522;2023-03-23T06:50:08;13.70;55.10
16521;DHT22;8373;48.110;11.522;2023-03-23T06:52:35;13.70;54.80
16521;DHT22;8373;48.110;11.522;2023-03-23T06:55:02;13.80;54.90
16521;DHT22;8373;48.110;11.522;2023-03-23T06:57:29;13.80;54.60
16521;DHT22;8373;48.110;11.522;2023-03-23T06:59:56;13.70;54.60
16521;DHT22;8373;48.110;11.522;2023-03-23T07:02:24;13.60;54.70
16521;DHT22;8373;48.110;11.522;2023-03-23T07:04:51;13.60;54.70
16521;DHT22;8373;48.110;11.522;2023-03-23T07:07:19;13.70;54.80
16521;DHT22;8373;48.110;11.522;2023-03-23T07:09:46;13.80;54.90
16521;DHT22;8373;48.110;11.522;2023-03-23T07:12:13;13.90;54.40
16521;DHT22;8373;48.110;11.522;2023-03-23T07:14:41;14.00;54.20
16521;DHT22;8373;48.110;11.522;2023-03-23T07:17:08;13.90;53.80
16521;DHT22;8373;48.110;11.522;2023-03-23T07:19:36;13.90;53.80
16521;DHT22;8373;48.110;11.522;2023-03-23T07:22:04;13.90;54.00
16521;DHT22;8373;48.110;11.522;2023-03-23T07:24:31;14.00;53.90
16521;DHT22;8373;48.110;11.522;2023-03-23T07:26:58;14.20;54.00
16521;DHT22;8373;48.110;11.522;2023-03-23T07:29:26;14.40;53.40
16521;DHT22;8373;48.110;11.522;2023-03-23T07:31:53;14.50;52.80
16521;DHT22;8373;48.110;11.522;2023-03-23T07:34:20;14.70;54.40
16521;DHT22;8373;48.110;11.522;2023-03-23T07:36:49;14.80;54.10
16521;DHT22;8373;48.110;11.522;2023-03-23T07:39:16;15.30;54.60
16521;DHT22;8373;48.110;11.522;2023-03-23T07:41:43;15.60;52.00
16521;DHT22;8373;48.110;11.522;2023-03-23T07:44:10;16.20;51.40
16521;DHT22;8373;48.110;11.522;2023-03-23T07:46:36;16.70;49.50
16521;DHT22;8373;48.110;11.522;2023-03-23T07:49:04;16.70;48.30
16521;DHT22;8373;48.110;11.522;2023-03-23T07:51:32;17.00;48.90
16521;DHT22;8373;48.110;11.522;2023-03-23T07:54:01;17.80;48.40
16521;DHT22;8373;48.110;11.522;2023-03-23T07:56:30;18.30;46.20
16521;DHT22;8373;48.110;11.522;2023-03-23T07:58:57;17.90;45.10
16521;DHT22;8373;48.110;11.522;2023-03-23T08:01:24;17.70;46.00
16521;DHT22;8373;48.110;11.522;2023-03-23T08:03:51;17.80;46.80
16521;DHT22;8373;48.110;11.522;2023-03-23T08:06:20;17.70;46.00
16521;DHT22;8373;48.110;11.522;2023-03-23T08:08:47;17.70;46.40
16521;DHT22;8373;48.110;11.522;2023-03-23T08:11:15;17.60;45.70
16521;DHT22;8373;48.110;11.522;2023-03-23T08:13:43;17.40;45.40
16521;DHT22;8373;48.110;11.522;2023-03-23T08:16:10;17.00;45.40
16521;DHT22;8373;48.110;11.522;2023-03-23T08:18:37;16.60;46.40
16521;DHT22;8373;48.110;11.522;2023-03-23T08:21:05;16.40;47.10
16521;DHT22;8373;48.110;11.522;2023-03-23T08:23:34;16.40;47.60
16521;DHT22;8373;48.110;11.522;2023-03-23T08:26:02;16.50;47.60
16521;DHT22;8373;48.110;11.522;2023-03-23T08:28:30;16.60;47.50
16521;DHT22;8373;48.110;11.522;2023-03-23T08:30:57;16.60;47.20
16521;DHT22;8373;48.110;11.522;2023-03-23T08:33:24;16.30;46.80
16521;DHT22;8373;48.110;11.522;2023-03-23T08:35:56;16.10;46.90
16521;DHT22;8373;48.110;11.522;2023-03-23T08:38:23;16.10;47.60
16521;DHT22;8373;48.110;11.522;2023-03-23T08:40:50;15.90;47.60
16521;DHT22;8373;48.110;11.522;2023-03-23T08:43:18;15.70;47.60
16521;DHT22;8373;48.110;11.522;2023-03-23T08:45:46;15.70;48.20
16521;DHT22;8373;48.110;11.522;2023-03-23T08:48:13;15.90;48.40
16521;DHT22;8373;48.110;11.522;2023-03-23T08:50:40;16.20;48.50
16521;DHT22;8373;48.110;11.522;2023-03-23T08:53:07;16.30;47.80
16521;DHT22;8373;48.110;11.522;2023-03-23T08:55:34;16.50;47.20
16521;DHT22;8373;48.110;11.522;2023-03-23T08:58:02;16.70;46.70
16521;DHT22;8373;48.110;11.522;2023-03-23T09:00:29;16.90;46.40
16521;DHT22;8373;48.110;11.522;2023-03-23T09:02:57;17.10;46.50
16521;DHT22;8373;48.110;11.522;2023-03-23T09:05:27;17.30;46.30
16521;DHT22;8373;48.110;11.522;2023-03-23T09:07:56;17.60;45.60
16521;DHT22;8373;48.110;11.522;2023-03-23T09:10:25;17.80;45.40
16521;DHT22;8373;48.110;11.522;2023-03-23T09:12:53;18.20;45.20
16521;DHT22;8373;48.110;11.522;2023-03-23T09:15:21;18.40;44.20
16521;DHT22;8373;48.110;11.522;2023-03-23T09:17:51;18.50;43.90
16521;DHT22;8373;48.110;11.522;2023-03-23T09:20:23;18.50;44.00
16521;DHT22;8373;48.110;11.522;2023-03-23T09:22:51;18.50;43.90
16521;DHT22;8373;48.110;11.522;2023-03-23T09:25:24;18.50;43.80
16521;DHT22;8373;48.110;11.522;2023-03-23T09:27:54;18.40;44.50
16521;DHT22;8373;48.110;11.522;2023-03-23T09:30:23;18.30;45.30
16521;DHT22;8373;48.110;11.522;2023-03-23T09:32:51;18.30;45.80
16521;DHT22;8373;48.110;11.522;2023-03-23T09:35:19;18.30;45.20
16521;DHT22;8373;48.110;11.522;2023-03-23T09:37:49;18.30;45.20
16521;DHT22;8373;48.110;11.522;2023-03-23T09:40:19;18.30;45.30
16521;DHT22;8373;48.110;11.522;2023-03-23T09:43:04;18.30;45.50
16521;DHT22;8373;48.110;11.522;2023-03-23T09:45:38;18.30;45.60
16521;DHT22;8373;48.110;11.522;2023-03-23T09:48:24;18.40;45.80
16521;DHT22;8373;48.110;11.522;2023-03-23T09:51:00;18.30;45.70
16521;DHT22;8373;48.110;11.522;2023-03-23T09:53:32;18.30;45.80
16521;DHT22;8373;48.110;11.522;2023-03-23T09:56:01;18.40;46.30
16521;DHT22;8373;48.110;11.522;2023-03-23T09:58:32;18.70;45.30
16521;DHT22;8373;48.110;11.522;2023-03-23T10:01:05;19.00;44.90
16521;DHT22;8373;48.110;11.522;2023-03-23T10:03:38;19.30;44.40
16521;DHT22;8373;48.110;11.522;2023-03-23T10:06:10;19.80;43.80
16521;DHT22;8373;48.110;11.522;2023-03-23T10:08:41;20.50;42.20
16521;DHT22;8373;48.110;11.522;2023-03-23T10:11:13;20.80;40.90
16521;DHT22;8373;48.110;11.522;2023-03-23T10:13:56;20.70;40.10
16521;DHT22;8373;48.110;11.522;2023-03-23T10:16:26;20.40;39.80
16521;DHT22;8373;48.110;11.522;2023-03-23T10:18:58;20.10;40.30
16521;DHT22;8373;48.110;11.522;2023-03-23T10:21:29;19.90;40.50
16521;DHT22;8373;48.110;11.522;2023-03-23T10:23:59;19.60;41.10
16521;DHT22;8373;48.110;11.522;2023-03-23T10:26:37;19.40;41.40
16521;DHT22;8373;48.110;11.522;2023-03-23T10:29:15;19.10;41.80
16521;DHT22;8373;48.110;11.522;2023-03-23T10:31:46;19.00;42.60
16521;DHT22;8373;48.110;11.522;2023-03-23T10:34:19;19.00;43.00
16521;DHT22;8373;48.110;11.522;2023-03-23T10:36:56;18.90;43.00
16521;DHT22;8373;48.110;11.522;2023-03-23T10:39:29;18.90;43.20
16521;DHT22;8373;48.110;11.522;2023-03-23T10:41:59;18.80;42.90
16521;DHT22;8373;48.110;11.522;2023-03-23T10:44:32;18.80;42.70
16521;DHT22;8373;48.110;11.522;2023-03-23T10:47:02;18.80;43.20
16521;DHT22;8373;48.110;11.522;2023-03-23T10:49:34;18.90;43.30
16521;DHT22;8373;48.110;11.522;2023-03-23T10:52:24;19.00;43.00
16521;DHT22;8373;48.110;11.522;2023-03-23T10:54:56;19.10;42.40
16521;DHT22;8373;48.110;11.522;2023-03-23T10:57:26;19.10;42.50
16521;DHT22;8373;48.110;11.522;2023-03-23T10:59:59;19.10;41.30
16521;DHT22;8373;48.110;11.522;2023-03-23T11:02:31;19.20;41.40
16521;DHT22;8373;48.110;11.522;2023-03-23T11:05:01;19.30;41.10
16521;DHT22;8373;48.110;11.522;2023-03-23T11:07:32;19.30;40.50
16521;DHT22;8373;48.110;11.522;2023-03-23T11:10:07;19.20;40.30
16521;DHT22;8373;48.110;11.522;2023-03-23T11:12:44;19.20;40.70
16521;DHT22;8373;48.110;11.522;2023-03-23T11:15:26;19.10;41.60
16521;DHT22;8373;48.110;11.522;2023-03-23T11:17:59;19.10;40.60
16521;DHT22;8373;48.110;11.522;2023-03-23T11:20:27;19.00;40.40
16521;DHT22;8373;48.110;11.522;2023-03-23T11:22:57;18.90;40.80
16521;DHT22;8373;48.110;11.522;2023-03-23T11:25:25;18.80;40.80
16521;DHT22;8373;48.110;11.522;2023-03-23T11:27:52;18.80;40.80
16521;DHT22;8373;48.110;11.522;2023-03-23T11:30:23;18.90;41.10
16521;DHT22;8373;48.110;11.522;2023-03-23T11:32:53;19.00;41.10
16521;DHT22;8373;48.110;11.522;2023-03-23T11:35:22;19.20;41.40
16521;DHT22;8373;48.110;11.522;2023-03-23T11:37:52;19.40;41.80
16521;DHT22;8373;48.110;11.522;2023-03-23T11:40:23;19.50;41.40
16521;DHT22;8373;48.110;11.522;2023-03-23T11:42:58;19.70;41.00
16521;DHT22;8373;48.110;11.522;2023-03-23T11:45:32;19.80;41.00
16521;DHT22;8373;48.110;11.522;2023-03-23T11:48:06;20.00;40.30
16521;DHT22;8373;48.110;11.522;2023-03-23T11:50:44;20.00;39.90
16521;DHT22;8373;48.110;11.522;2023-03-23T11:53:17;20.20;39.60
16521;DHT22;8373;48.110;11.522;2023-03-23T11:56:12;20.30;39.00
16521;DHT22;8373;48.110;11.522;2023-03-23T11:58:40;20.30;38.60
16521;DHT22;8373;48.110;11.522;2023-03-23T12:01:18;20.40;38.70
16521;DHT22;8373;48.110;11.522;2023-03-23T12:04:01;20.60;39.00
16521;DHT22;8373;48.110;11.522;2023-03-23T12:06:36;20.70;39.20
16521;DHT22;8373;48.110;11.522;2023-03-23T12:09:20;20.80;38.70
16521;DHT22;8373;48.110;11.522;2023-03-23T12:12:01;20.90;39.10
16521;DHT22;8373;48.110;11.522;2023-03-23T12:14:36;20.90;38.80
16521;DHT22;8373;48.110;11.522;2023-03-23T12:17:17;21.00;38.90
16521;DHT22;8373;48.110;11.522;2023-03-23T12:20:01;21.10;38.60
16521;DHT22;8373;48.110;11.522;2023-03-23T12:22:46;21.30;38.50
16521;DHT22;8373;48.110;11.522;2023-03-23T12:25:31;21.60;37.90
16521;DHT22;8373;48.110;11.522;2023-03-23T12:28:05;21.70;36.40
16521;DHT22;8373;48.110;11.522;2023-03-23T12:30:37;21.70;37.00
16521;DHT22;8373;48.110;11.522;2023-03-23T12:33:16;21.50;37.20
16521;DHT22;8373;48.110;11.522;2023-03-23T12:35:58;21.20;36.60
16521;DHT22;8373;48.110;11.522;2023-03-23T12:38:43;20.80;36.60
16521;DHT22;8373;48.110;11.522;2023-03-23T12:41:16;20.60;37.40
16521;DHT22;8373;48.110;11.522;2023-03-23T12:43:58;20.50;37.40
16521;DHT22;8373;48.110;11.522;2023-03-23T12:46:54;20.30;37.90
16521;DHT22;8373;48.110;11.522;2023-03-23T12:49:29;20.20;38.20
16521;DHT22;8373;48.110;11.522;2023-03-23T12:52:08;20.20;38.70
16521;DHT22;8373;48.110;11.522;2023-03-23T12:54:41;20.20;38.80
16521;DHT22;8373;48.110;11.522;2023-03-23T12:57:17;20.20;38.20
16521;DHT22;8373;48.110;11.522;2023-03-23T12:59:52;20.20;37.90
16521;DHT22;8373;48.110;11.522;2023-03-23T13:02:23;20.20;38.20
16521;DHT22;8373;48.110;11.522;2023-03-23T13:04:55;20.20;37.00
16521;DHT22;8373;48.110;11.522;2023-03-23T13:07:29;20.20;37.60
16521;DHT22;8373;48.110;11.522;2023-03-23T13:10:03;20.20;37.70
16521;DHT22;8373;48.110;11.522;2023-03-23T13:12:32;20.20;38.20
16521;DHT22;8373;48.110;11.522;2023-03-23T13:15:18;20.10;37.80
16521;DHT22;8373;48.110;11.522;2023-03-23T13:17:51;19.80;37.70
16521;DHT22;8373;48.110;11.522;2023-03-23T13:23:19;19.60;37.70
16521;DHT22;8373;48.110;11.522;2023-03-23T13:25:51;19.50;38.20
16521;DHT22;8373;48.110;11.522;2023-03-23T13:28:20;19.30;38.40
16521;DHT22;8373;48.110;11.522;2023-03-23T13:31:02;19.30;38.50
16521;DHT22;8373;48.110;11.522;2023-03-23T13:33:34;19.50;38.80
16521;DHT22;8373;48.110;11.522;2023-03-23T13:36:07;19.50;38.60
16521;DHT22;8373;48.110;11.522;2023-03-23T13:38:35;19.50;38.50
16521;DHT22;8373;48.110;11.522;2023-03-23T13:41:11;19.50;38.70
16521;DHT22;8373;48.110;11.522;2023-03-23T13:43:40;19.40;38.90
16521;DHT22;8373;48.110;11.522;2023-03-23T13:46:22;19.50;39.50
16521;DHT22;8373;48.110;11.522;2023-03-23T13:49:05;19.50;39.70
16521;DHT22;8373;48.110;11.522;2023-03-23T13:51:52;19.40;39.60
16521;DHT22;8373;48.110;11.522;2023-03-23T13:54:25;19.40;39.70
16521;DHT22;8373;48.110;11.522;2023-03-23T13:56:57;19.40;39.60
16521;DHT22;8373;48.110;11.522;2023-03-23T13:59:35;19.50;40.60
16521;DHT22;8373;48.110;11.522;2023-03-23T14:02:28;19.60;41.80
16521;DHT22;8373;48.110;11.522;2023-03-23T14:04:56;19.70;41.90
16521;DHT22;8373;48.110;11.522;2023-03-23T14:07:24;19.70;42.20
16521;DHT22;8373;48.110;11.522;2023-03-23T14:09:51;19.60;42.30
16521;DHT22;8373;48.110;11.522;2023-03-23T14:12:22;19.60;42.80
16521;DHT22;8373;48.110;11.522;2023-03-23T14:14:56;19.60;42.60
16521;DHT22;8373;48.110;11.522;2023-03-23T14:17:31;19.60;42.50
16521;DHT22;8373;48.110;11.522;2023-03-23T14:19:59;19.40;42.30
16521;DHT22;8373;48.110;11.522;2023-03-23T14:22:31;19.50;42.40
16521;DHT22;8373;48.110;11.522;2023-03-23T14:25:00;19.70;42.90
16521;DHT22;8373;48.110;11.522;2023-03-23T14:27:34;19.70;42.20
16521;DHT22;8373;48.110;11.522;2023-03-23T14:30:04;19.70;42.00
16521;DHT22;8373;48.110;11.522;2023-03-23T14:32:33;19.60;41.50
16521;DHT22;8373;48.110;11.522;2023-03-23T14:35:05;19.50;41.60
16521;DHT22;8373;48.110;11.522;2023-03-23T14:37:34;19.50;41.50
16521;DHT22;8373;48.110;11.522;2023-03-23T14:40:02;19.40;41.60
16521;DHT22;8373;48.110;11.522;2023-03-23T14:42:33;19.50;41.60
16521;DHT22;8373;48.110;11.522;2023-03-23T14:45:02;19.50;41.60
16521;DHT22;8373;48.110;11.522;2023-03-23T14:47:34;19.50;41.90
16521;DHT22;8373;48.110;11.522;2023-03-23T14:50:04;19.40;41.80
16521;DHT22;8373;48.110;11.522;2023-03-23T14:52:35;19.30;42.00
16521;DHT22;8373;48.110;11.522;2023-03-23T14:55:11;19.30;42.20
16521;DHT22;8373;48.110;11.522;2023-03-23T14:57:41;19.30;42.50
16521;DHT22;8373;48.110;11.522;2023-03-23T15:00:13;19.30;42.50
16521;DHT22;8373;48.110;11.522;2023-03-23T15:02:45;19.20;42.40
16521;DHT22;8373;48.110;11.522;2023-03-23T15:05:15;19.10;42.70
16521;DHT22;8373;48.110;11.522;2023-03-23T15:07:44;19.10;42.90
16521;DHT22;8373;48.110;11.522;2023-03-23T15:10:16;19.10;43.10
16521;DHT22;8373;48.110;11.522;2023-03-23T15:12:45;19.00;43.00
16521;DHT22;8373;48.110;11.522;2023-03-23T15:15:20;19.00;43.20
16521;DHT22;8373;48.110;11.522;2023-03-23T15:17:50;19.00;43.70
16521;DHT22;8373;48.110;11.522;2023-03-23T15:20:21;19.00;43.60
16521;DHT22;8373;48.110;11.522;2023-03-23T15:22:49;19.10;43.40
16521;DHT22;8373;48.110;11.522;2023-03-23T15:25:21;18.90;43.00
16521;DHT22;8373;48.110;11.522;2023-03-23T15:27:50;18.80;43.10
16521;DHT22;8373;48.110;11.522;2023-03-23T15:30:32;18.90;43.70
16521;DHT22;8373;48.110;11.522;2023-03-23T15:33:06;18.80;43.80
16521;DHT22;8373;48.110;11.522;2023-03-23T15:35:37;18.80;44.20
16521;DHT22;8373;48.110;11.522;2023-03-23T15:38:06;18.80;44.50
16521;DHT22;8373;48.110;11.522;2023-03-23T15:40:41;18.80;44.40
16521;DHT22;8373;48.110;11.522;2023-03-23T15:43:16;18.80;44.50
16521;DHT22;8373;48.110;11.522;2023-03-23T15:45:57;18.70;44.60
16521;DHT22;8373;48.110;11.522;2023-03-23T15:48:31;18.50;45.40
16521;DHT22;8373;48.110;11.522;2023-03-23T15:50:59;18.30;46.00
16521;DHT22;8373;48.110;11.522;2023-03-23T15:53:31;18.20;46.20
16521;DHT22;8373;48.110;11.522;2023-03-23T15:56:03;18.20;46.20